Time;durP1;ratioP1;P1;durP2;ratioP2;P2;SDS_P1;SDS_P2;PMS_P1;PMS_P2;Temp;Humidity;BMP_temperature;BMP_pressure;BME280_temperature;BME280_humidity;BME280_pressure;Samples;Min_cycle;Max_cycle;Signal;HPM_P1;HPM_P2
2022/08/20 00:02:02;;;;;;;7.22;3.70;;;26.10;99.90;;;;;;4208580;28;20050;-70
2022/08/20 00:04:07;;;;;;;5.38;3.63;;;26.10;99.90;;;;;;4208856;28;20036;-70
2022/08/20 00:06:16;;;;;;;4.82;2.55;;;26.10;99.90;;;;;;4207304;28;20048;-70
2022/08/20 00:08:24;;;;;;;6.35;3.13;;;25.90;99.90;;;;;;4208268;28;20036;-70
2022/08/20 00:10:29;;;;;;;6.50;2.95;;;26.00;99.90;;;;;;4208123;28;20060;-70
2022/08/20 00:12:42;;;;;;;8.60;7.53;;;26.00;99.90;;;;;;4206359;28;20150;-68
2022/08/20 00:14:47;;;;;;;12.27;9.57;;;26.10;99.90;;;;;;4208308;28;20047;-69
2022/08/20 00:16:52;;;;;;;7.65;6.03;;;26.20;99.90;;;;;;4207206;28;20059;-69
2022/08/20 00:19:03;;;;;;;5.28;3.55;;;26.20;99.90;;;;;;4208001;28;20059;-70
2022/08/20 00:21:10;;;;;;;4.28;2.60;;;26.20;99.90;;;;;;4206710;28;20056;-69
2022/08/20 00:23:22;;;;;;;3.43;2.20;;;26.30;99.90;;;;;;4208534;28;20414;-69
2022/08/20 00:25:28;;;;;;;4.35;1.92;;;26.30;99.90;;;;;;4208576;28;20048;-71
2022/08/20 00:27:38;;;;;;;3.53;1.70;;;26.30;99.90;;;;;;4205682;28;20568;-70
2022/08/20 00:29:44;;;;;;;2.63;1.70;;;26.40;99.90;;;;;;4208050;28;20068;-70
2022/08/20 00:31:51;;;;;;;104.13;7.63;;;26.40;99.90;;;;;;4207043;28;20560;-70
2022/08/20 00:33:59;;;;;;;32.60;4.07;;;26.40;99.90;;;;;;4206674;28;20040;-69
2022/08/20 00:36:08;;;;;;;12.93;2.17;;;26.40;99.90;;;;;;4207970;28;20047;-70
2022/08/20 00:38:17;;;;;;;122.75;9.98;;;26.40;99.90;;;;;;4207523;28;20477;-69
2022/08/20 00:40:42;;;;;;;36.75;3.42;;;26.40;99.90;;;;;;4208451;28;20121;-68
2022/08/20 00:42:50;;;;;;;4.28;1.85;;;26.50;99.90;;;;;;4209004;28;20040;-67
2022/08/20 00:45:00;;;;;;;3.80;1.50;;;26.50;99.90;;;;;;4208767;28;20753;-66
2022/08/20 00:47:08;;;;;;;45.33;5.20;;;26.50;99.90;;;;;;4209175;28;20036;-68
2022/08/20 00:49:17;;;;;;;8.00;2.45;;;26.40;99.90;;;;;;4208908;28;20127;-68
2022/08/20 00:51:43;;;;;;;4.95;2.08;;;26.50;99.90;;;;;;4209202;28;20061;-68
2022/08/20 00:53:49;;;;;;;4.40;1.40;;;26.50;99.90;;;;;;4201543;28;20059;-68
2022/08/20 00:55:54;;;;;;;5.20;1.77;;;26.40;99.90;;;;;;4208701;28;20105;-68
2022/08/20 00:58:06;;;;;;;3.22;1.88;;;26.50;99.90;;;;;;4207478;28;20399;-69
2022/08/20 01:00:15;;;;;;;3.33;1.50;;;26.50;99.90;;;;;;4207698;28;20036;-68
2022/08/20 01:02:20;;;;;;;3.75;1.60;;;26.50;99.90;;;;;;4210409;28;20505;-69
2022/08/20 01:04:28;;;;;;;4.93;1.50;;;26.50;99.90;;;;;;4209521;28;20028;-69
2022/08/20 01:06:34;;;;;;;2.65;1.40;;;26.60;99.90;;;;;;4210819;28;20117;-68
2022/08/20 01:08:41;;;;;;;2.15;1.10;;;26.60;99.90;;;;;;4210344;28;20046;-69
2022/08/20 01:10:48;;;;;;;4.80;1.27;;;26.60;99.90;;;;;;4209355;28;20042;-66
2022/08/20 01:12:56;;;;;;;3.92;1.40;;;26.60;99.90;;;;;;4211062;28;20031;-66
2022/08/20 01:15:08;;;;;;;3.30;1.60;;;26.70;99.90;;;;;;4210429;28;20072;-69
2022/08/20 01:17:18;;;;;;;3.00;1.40;;;26.80;99.90;;;;;;4210916;28;20056;-68
2022/08/20 01:19:35;;;;;;;4.03;1.33;;;26.80;99.90;;;;;;4174918;28;20045;-68
2022/08/20 01:21:39;;;;;;;5.28;1.77;;;26.80;99.90;;;;;;4209985;28;20048;-68
2022/08/20 01:24:11;;;;;;;3.00;1.20;;;26.80;99.90;;;;;;4209491;28;20036;-68
2022/08/20 01:26:20;;;;;;;2.55;1.35;;;26.70;99.90;;;;;;4208870;28;20048;-70
2022/08/20 01:28:43;;;;;;;2.25;0.98;;;26.80;99.90;;;;;;4210244;28;20048;-68
2022/08/20 01:30:50;;;;;;;2.78;1.02;;;26.80;99.90;;;;;;4210979;28;20502;-67
2022/08/20 01:32:56;;;;;;;4.15;1.10;;;26.80;99.90;;;;;;4210529;28;20048;-69
2022/08/20 01:35:01;;;;;;;3.72;1.35;;;26.90;99.90;;;;;;4203302;28;20422;-68
2022/08/20 01:37:08;;;;;;;1.98;0.90;;;26.80;99.90;;;;;;4242928;27;20066;-68
2022/08/20 01:39:19;;;;;;;2.83;1.00;;;26.80;99.90;;;;;;4188922;28;20086;-68
2022/08/20 01:41:48;;;;;;;5.53;0.90;;;26.80;99.90;;;;;;4209964;28;20067;-68
2022/08/20 01:43:55;;;;;;;4.53;1.08;;;26.80;99.90;;;;;;4209523;28;20490;-70
2022/08/20 01:46:02;;;;;;;4.13;1.20;;;26.80;99.90;;;;;;4208952;28;20158;-69
2022/08/20 01:48:08;;;;;;;2.80;0.90;;;26.80;99.90;;;;;;4210122;28;20109;-69
2022/08/20 01:50:23;;;;;;;3.58;1.13;;;26.80;99.90;;;;;;4209297;28;20135;-69
2022/08/20 01:52:42;;;;;;;4.28;1.30;;;26.90;99.90;;;;;;4208250;28;20048;-69
2022/08/20 01:54:47;;;;;;;1.77;1.08;;;26.80;99.90;;;;;;4209003;28;20067;-69
2022/08/20 01:56:56;;;;;;;2.78;1.30;;;26.80;99.90;;;;;;4209582;28;20063;-69
2022/08/20 01:59:05;;;;;;;2.85;1.40;;;26.80;99.90;;;;;;4210676;28;20122;-69
2022/08/20 02:01:26;;;;;;;2.83;1.45;;;26.80;99.90;;;;;;4210918;28;20064;-69
2022/08/20 02:03:32;;;;;;;2.95;1.38;;;26.80;99.90;;;;;;4209138;28;20143;-69
2022/08/20 02:05:43;;;;;;;2.50;1.73;;;26.80;99.90;;;;;;4207525;28;20747;-69
2022/08/20 02:07:48;;;;;;;2.45;1.27;;;26.80;99.90;;;;;;4210923;28;20305;-69
2022/08/20 02:09:52;;;;;;;5.07;1.38;;;26.90;99.90;;;;;;4210759;28;20136;-69
2022/08/20 02:11:59;;;;;;;2.75;1.40;;;26.90;99.90;;;;;;4210705;28;20044;-71
2022/08/20 02:14:05;;;;;;;3.47;1.20;;;27.00;99.90;;;;;;4190279;28;20376;-71
2022/08/20 02:16:13;;;;;;;1.88;1.25;;;27.10;99.90;;;;;;4210086;28;20040;-70
2022/08/20 02:18:19;;;;;;;3.75;1.40;;;27.10;99.90;;;;;;4210605;28;20092;-70
2022/08/20 02:20:27;;;;;;;4.70;1.50;;;27.10;99.90;;;;;;4207716;28;20082;-70
2022/08/20 02:22:46;;;;;;;2.38;1.45;;;27.10;99.90;;;;;;4210913;28;20040;-69
2022/08/20 02:24:53;;;;;;;3.38;1.50;;;27.00;99.90;;;;;;4209282;28;20760;-68
2022/08/20 02:26:57;;;;;;;1.85;1.10;;;27.10;99.90;;;;;;4208882;28;20121;-68
2022/08/20 02:29:05;;;;;;;129.20;9.30;;;27.00;99.90;;;;;;4207995;28;20036;-69
2022/08/20 02:31:12;;;;;;;54.30;3.92;;;26.90;99.90;;;;;;4207578;28;20050;-69
2022/08/20 02:33:17;;;;;;;19.40;1.80;;;26.90;99.90;;;;;;4210629;28;20077;-69
2022/08/20 02:35:25;;;;;;;6.47;1.33;;;26.90;99.90;;;;;;4207954;28;20044;-68
2022/08/20 02:37:30;;;;;;;3.03;0.90;;;26.90;99.90;;;;;;4210557;28;20091;-70
2022/08/20 02:39:34;;;;;;;52.75;6.47;;;26.90;99.90;;;;;;4210701;28;20766;-69
2022/08/20 02:41:39;;;;;;;15.10;2.03;;;26.90;99.90;;;;;;4211175;28;20040;-69
2022/08/20 02:43:44;;;;;;;3.35;0.93;;;27.00;99.90;;;;;;4211450;28;20036;-69
2022/08/20 02:45:48;;;;;;;2.25;0.80;;;27.00;99.90;;;;;;4210704;28;20475;-69
2022/08/20 02:47:55;;;;;;;7.68;0.90;;;27.00;99.90;;;;;;4210950;28;20131;-69
2022/08/20 02:50:03;;;;;;;181.90;20.08;;;27.00;99.90;;;;;;4210724;28;20565;-69
2022/08/20 02:52:10;;;;;;;60.65;7.25;;;27.00;99.90;;;;;;4211339;28;20155;-69
2022/08/20 02:54:17;;;;;;;16.95;2.40;;;27.00;99.90;;;;;;4211006;28;20040;-69
2022/08/20 02:56:24;;;;;;;8.52;1.40;;;27.00;99.90;;;;;;4210994;28;20040;-70
2022/08/20 02:58:28;;;;;;;5.93;0.90;;;27.00;99.90;;;;;;4210808;28;20736;-69
2022/08/20 03:00:37;;;;;;;1.98;0.80;;;27.00;99.90;;;;;;4211089;28;20458;-69
2022/08/20 03:02:44;;;;;;;5.13;0.90;;;27.10;99.90;;;;;;4211114;28;20044;-69
2022/08/20 03:04:48;;;;;;;6.47;1.58;;;27.10;99.90;;;;;;4210704;28;20090;-69
2022/08/20 03:06:55;;;;;;;1.33;0.40;;;27.10;99.90;;;;;;4210783;28;20072;-69
2022/08/20 03:09:04;;;;;;;0.88;0.60;;;27.10;99.90;;;;;;4210738;28;20060;-70
2022/08/20 03:11:09;;;;;;;0.88;0.40;;;27.20;99.90;;;;;;4210644;28;20530;-69
2022/08/20 03:13:16;;;;;;;1.23;0.52;;;27.10;99.90;;;;;;4209405;28;20047;-69
2022/08/20 03:15:21;;;;;;;0.25;0.20;;;27.20;99.90;;;;;;4211003;28;20082;-70
2022/08/20 03:17:25;;;;;;;1.95;0.45;;;27.30;99.90;;;;;;4214273;28;20134;-70
2022/08/20 03:19:32;;;;;;;1.88;0.40;;;27.20;99.90;;;;;;4213906;28;20048;-70
2022/08/20 03:21:39;;;;;;;1.73;0.30;;;27.30;99.90;;;;;;4214101;28;20042;-70
2022/08/20 03:23:43;;;;;;;0.45;0.38;;;27.40;99.90;;;;;;4207661;28;20831;-70
2022/08/20 03:25:50;;;;;;;3.80;0.52;;;27.40;99.90;;;;;;4205106;28;20080;-69
2022/08/20 03:27:57;;;;;;;1.75;1.10;;;27.50;99.90;;;;;;4194162;28;20040;-69
2022/08/20 03:30:06;;;;;;;1.45;0.35;;;27.50;99.90;;;;;;4214063;28;20042;-69
2022/08/20 03:32:13;;;;;;;1.67;0.32;;;27.70;99.90;;;;;;4212986;28;20044;-70
2022/08/20 03:34:18;;;;;;;0.93;0.40;;;27.80;99.90;;;;;;4213903;28;20036;-69
2022/08/20 03:36:23;;;;;;;4.72;0.80;;;27.80;99.90;;;;;;4213782;28;20052;-69
2022/08/20 03:38:33;;;;;;;1.23;0.43;;;27.90;99.90;;;;;;4213602;28;20079;-69
2022/08/20 03:40:39;;;;;;;1.40;0.50;;;27.90;99.90;;;;;;4213552;28;20139;-69
2022/08/20 03:42:44;;;;;;;14.25;1.42;;;28.00;99.90;;;;;;4213808;28;20093;-69
2022/08/20 03:44:51;;;;;;;7.82;1.00;;;28.00;99.90;;;;;;4213816;28;20090;-69
2022/08/20 03:47:06;;;;;;;7.40;1.38;;;28.10;99.90;;;;;;4212558;28;20044;-70
2022/08/20 03:49:11;;;;;;;7.55;1.20;;;28.10;99.90;;;;;;4228892;28;20104;-70
2022/08/20 03:51:15;;;;;;;6.88;1.00;;;28.20;99.90;;;;;;4211641;28;20147;-69
2022/08/20 03:53:22;;;;;;;1.85;1.05;;;28.30;99.90;;;;;;4195725;28;20398;-70
2022/08/20 03:55:28;;;;;;;40.38;4.70;;;28.40;99.90;;;;;;4204118;28;20032;-70
2022/08/20 03:57:34;;;;;;;14.25;1.92;;;28.50;99.90;;;;;;4213643;28;20082;-70
2022/08/20 03:59:39;;;;;;;4.80;1.42;;;28.50;99.90;;;;;;4212498;28;20504;-70
2022/08/20 04:01:45;;;;;;;6.10;1.42;;;28.50;99.90;;;;;;4207908;28;20048;-68
2022/08/20 04:03:52;;;;;;;6.45;1.40;;;28.60;99.90;;;;;;4196803;28;20102;-69
2022/08/20 04:05:59;;;;;;;3.20;1.20;;;28.50;99.90;;;;;;4210179;28;20060;-68
2022/08/20 04:08:04;;;;;;;27.30;4.35;;;28.60;99.90;;;;;;4213212;28;20036;-68
2022/08/20 04:10:10;;;;;;;121.43;11.13;;;28.60;99.90;;;;;;4210408;28;20052;-66
2022/08/20 04:12:16;;;;;;;54.45;6.57;;;28.60;99.90;;;;;;4213403;28;20040;-67
2022/08/20 04:14:21;;;;;;;29.90;3.92;;;28.60;99.90;;;;;;4212944;28;20135;-68
2022/08/20 04:16:28;;;;;;;6.68;2.00;;;28.60;99.90;;;;;;4210240;28;20067;-67
2022/08/20 04:18:35;;;;;;;4.80;1.25;;;28.60;99.90;;;;;;4212069;28;20079;-67
2022/08/20 04:20:41;;;;;;;32.55;4.65;;;28.70;99.90;;;;;;4212178;28;20052;-67
2022/08/20 04:22:46;;;;;;;4.70;1.60;;;28.70;99.90;;;;;;4210212;28;20038;-67
2022/08/20 04:25:01;;;;;;;4.05;1.70;;;28.70;99.90;;;;;;4212631;28;20546;-67
2022/08/20 04:27:10;;;;;;;3.05;1.38;;;28.70;99.90;;;;;;4210508;28;20054;-67
2022/08/20 04:29:16;;;;;;;87.20;11.40;;;28.70;99.90;;;;;;4211500;28;20037;-67
2022/08/20 04:31:23;;;;;;;44.95;5.93;;;28.70;99.90;;;;;;4210282;28;20032;-66
2022/08/20 04:33:29;;;;;;;13.27;3.08;;;28.80;99.90;;;;;;4211201;28;20067;-67
2022/08/20 04:35:39;;;;;;;6.03;1.75;;;28.70;99.90;;;;;;4210573;28;20093;-67
2022/08/20 04:37:46;;;;;;;6.20;2.30;;;28.70;99.90;;;;;;4210512;28;20040;-68
2022/08/20 04:42:09;;;;;;;36.97;5.63;;;28.70;99.90;;;;;;4210338;28;20598;-66
2022/08/20 04:44:14;;;;;;;8.63;2.67;;;28.70;99.90;;;;;;4212201;28;20564;-66
2022/08/20 04:46:19;;;;;;;2.97;1.80;;;28.60;99.90;;;;;;4210926;28;20059;-66
2022/08/20 04:48:27;;;;;;;8.45;2.13;;;28.70;99.90;;;;;;4211849;28;20071;-67
2022/08/20 04:50:35;;;;;;;4.35;1.92;;;28.60;99.90;;;;;;4211549;28;20067;-67
2022/08/20 04:52:40;;;;;;;4.03;1.70;;;28.70;99.90;;;;;;4209374;28;20131;-68
2022/08/20 04:54:46;;;;;;;3.33;2.05;;;28.70;99.90;;;;;;4212151;28;20052;-67
2022/08/20 04:56:53;;;;;;;2.95;1.90;;;28.80;99.90;;;;;;4210676;28;20044;-67
2022/08/20 04:58:59;;;;;;;5.55;2.33;;;28.80;99.90;;;;;;4211194;28;20097;-67
2022/08/20 05:01:10;;;;;;;20.13;4.18;;;28.90;99.90;;;;;;4209589;28;20047;-66
2022/08/20 05:03:15;;;;;;;5.18;2.42;;;29.00;99.90;;;;;;4211478;28;20047;-67
2022/08/20 05:05:21;;;;;;;4.10;2.30;;;29.10;99.90;;;;;;4208735;28;20097;-66
2022/08/20 05:07:28;;;;;;;3.67;1.75;;;29.20;99.90;;;;;;4211773;28;20040;-66
2022/08/20 05:09:34;;;;;;;6.20;2.38;;;29.20;99.90;;;;;;4175665;28;20044;-66
2022/08/20 05:11:46;;;;;;;4.95;1.92;;;29.30;99.90;;;;;;4209827;28;20040;-66
2022/08/20 05:13:52;;;;;;;3.70;2.15;;;29.30;99.90;;;;;;4211470;28;20059;-67
2022/08/20 05:16:01;;;;;;;6.10;2.15;;;29.30;99.90;;;;;;4208907;28;20044;-66
2022/08/20 05:18:06;;;;;;;3.35;2.05;;;29.20;99.90;;;;;;4210593;28;20044;-67
2022/08/20 05:20:17;;;;;;;4.45;2.30;;;29.20;99.90;;;;;;4211363;28;20063;-66
2022/08/20 05:22:23;;;;;;;14.63;3.10;;;29.10;99.90;;;;;;4209325;28;20075;-67
2022/08/20 05:24:33;;;;;;;9.50;2.67;;;29.00;99.90;;;;;;4211618;28;20097;-67
2022/08/20 05:26:39;;;;;;;3.20;2.00;;;29.00;99.90;;;;;;4211510;28;20048;-66
2022/08/20 05:28:47;;;;;;;3.80;2.03;;;29.10;99.90;;;;;;4206738;28;20044;-67
2022/08/20 05:31:01;;;;;;;5.47;2.83;;;29.10;99.90;;;;;;4208897;28;20040;-67
2022/08/20 05:33:06;;;;;;;5.93;2.40;;;29.20;99.90;;;;;;4211507;28;20048;-67
2022/08/20 05:35:11;;;;;;;7.20;2.42;;;29.10;99.90;;;;;;4211232;28;20040;-66
2022/08/20 05:37:16;;;;;;;5.85;2.10;;;29.20;99.90;;;;;;4211313;28;20036;-66
2022/08/20 05:39:23;;;;;;;7.25;2.13;;;29.20;99.90;;;;;;4204270;28;20115;-66
2022/08/20 05:41:30;;;;;;;3.75;2.30;;;29.10;99.90;;;;;;4211138;28;20040;-66
2022/08/20 05:43:34;;;;;;;6.70;2.40;;;29.20;99.90;;;;;;4211030;28;20440;-66
2022/08/20 05:45:40;;;;;;;4.15;2.10;;;29.40;99.90;;;;;;4210512;28;20043;-65
2022/08/20 05:47:47;;;;;;;15.13;3.00;;;29.40;99.90;;;;;;4209110;28;20079;-65
2022/08/20 05:49:59;;;;;;;6.97;2.55;;;29.50;99.90;;;;;;4209439;28;20062;-65
2022/08/20 05:52:05;;;;;;;7.28;2.58;;;29.50;99.90;;;;;;4208908;28;20105;-65
2022/08/20 05:54:12;;;;;;;4.63;2.30;;;29.50;99.90;;;;;;4211325;28;20043;-65
2022/08/20 05:56:17;;;;;;;8.00;2.25;;;29.40;99.90;;;;;;4211225;28;20043;-65
2022/08/20 05:58:31;;;;;;;5.10;2.53;;;29.40;99.90;;;;;;4208634;28;20050;-66
2022/08/20 06:00:38;;;;;;;6.30;2.72;;;29.50;99.90;;;;;;4208030;28;20379;-68
2022/08/20 06:05:01;;;;;;;6.30;2.58;;;29.60;99.90;;;;;;4208403;28;20056;-67
2022/08/20 06:07:06;;;;;;;5.65;2.63;;;29.70;99.90;;;;;;4210650;28;20950;-65
2022/08/20 06:09:11;;;;;;;5.32;2.60;;;29.80;99.90;;;;;;4210499;28;20645;-66
2022/08/20 06:11:19;;;;;;;6.13;2.90;;;29.80;99.90;;;;;;4209648;28;20066;-68
2022/08/20 06:13:27;;;;;;;12.80;2.83;;;29.80;99.90;;;;;;4208810;28;20101;-67
2022/08/20 06:15:33;;;;;;;5.53;2.45;;;29.90;99.90;;;;;;4209627;28;20038;-66
2022/08/20 06:17:39;;;;;;;4.60;2.17;;;29.90;99.90;;;;;;4207700;28;20051;-67
2022/08/20 06:19:46;;;;;;;4.93;2.45;;;29.90;99.90;;;;;;4191305;28;20075;-67
2022/08/20 06:21:51;;;;;;;3.72;2.17;;;30.00;99.90;;;;;;4209496;28;20040;-67
2022/08/20 06:23:58;;;;;;;7.38;2.40;;;30.00;99.90;;;;;;4210624;28;20040;-68
2022/08/20 06:26:09;;;;;;;;;;;30.10;99.90;;;;;;4209727;28;20029;-68
2022/08/20 06:28:14;;;;;;;4.85;2.47;;;30.10;99.90;;;;;;4208274;28;20397;-69
2022/08/20 06:30:20;;;;;;;6.22;3.00;;;30.10;99.90;;;;;;4208193;28;20055;-67
2022/08/20 06:32:27;;;;;;;7.63;2.35;;;30.10;99.90;;;;;;4210198;28;20551;-66
2022/08/20 06:34:35;;;;;;;8.23;2.80;;;30.10;99.90;;;;;;4209742;28;20040;-67
2022/08/20 06:36:53;;;;;;;5.57;2.60;;;30.20;99.90;;;;;;4209446;28;20036;-67
2022/08/20 06:38:58;;;;;;;8.23;2.85;;;30.30;99.90;;;;;;4208008;28;20048;-66
2022/08/20 06:41:06;;;;;;;8.50;2.63;;;30.20;99.90;;;;;;4210127;28;20067;-67
2022/08/20 06:43:13;;;;;;;7.90;2.65;;;30.20;99.90;;;;;;4209437;28;20052;-67
2022/08/20 06:45:25;;;;;;;4.72;2.45;;;30.20;99.90;;;;;;4208081;28;20055;-68
2022/08/20 06:47:30;;;;;;;6.43;2.85;;;30.20;99.90;;;;;;4207537;28;20406;-67
2022/08/20 06:49:36;;;;;;;5.20;2.47;;;30.30;99.90;;;;;;4209798;28;20117;-68
2022/08/20 06:51:43;;;;;;;5.68;2.55;;;30.30;99.90;;;;;;4211095;28;20040;-69
2022/08/20 06:53:54;;;;;;;6.07;2.38;;;30.30;99.90;;;;;;4213697;28;20749;-69
2022/08/20 06:56:01;;;;;;;6.78;2.80;;;30.20;99.90;;;;;;4211029;28;20456;-69
2022/08/20 06:58:07;;;;;;;6.32;2.58;;;30.20;99.90;;;;;;4212200;28;20042;-68
2022/08/20 07:00:32;;;;;;;7.05;2.85;;;30.10;99.90;;;;;;4213370;28;20042;-69
2022/08/20 07:02:39;;;;;;;5.82;2.33;;;30.10;99.90;;;;;;4213258;28;20511;-68
2022/08/20 07:04:46;;;;;;;8.82;2.70;;;30.10;99.90;;;;;;4192379;28;20526;-69
2022/08/20 07:06:54;;;;;;;6.07;2.72;;;30.20;99.90;;;;;;4212252;28;20060;-69
2022/08/20 07:09:00;;;;;;;7.32;2.75;;;30.30;99.90;;;;;;4210617;28;20036;-68
2022/08/20 07:11:06;;;;;;;6.93;2.63;;;30.30;99.90;;;;;;4212223;28;20036;-67
2022/08/20 07:13:11;;;;;;;6.43;2.47;;;30.30;99.90;;;;;;4213661;28;20046;-69
2022/08/20 07:15:16;;;;;;;5.60;2.35;;;30.30;99.90;;;;;;4213385;28;20040;-68
2022/08/20 07:17:20;;;;;;;5.07;2.22;;;30.30;99.90;;;;;;4226834;28;20040;-68
2022/08/20 07:19:26;;;;;;;6.50;2.75;;;30.30;99.90;;;;;;4212577;28;20040;-69
2022/08/20 07:21:31;;;;;;;5.38;2.67;;;30.30;99.90;;;;;;4208326;28;20132;-69
2022/08/20 07:23:36;;;;;;;6.97;2.55;;;30.10;99.90;;;;;;4212698;28;20044;-70
2022/08/20 07:25:42;;;;;;;10.40;2.30;;;30.00;99.90;;;;;;4208622;28;20048;-69
2022/08/20 07:27:48;;;;;;;5.43;2.38;;;30.00;99.90;;;;;;4211435;28;20155;-70
2022/08/20 07:34:41;;;;;;;13.75;3.63;;;29.90;99.90;;;;;;4210697;28;20044;-70
2022/08/20 07:36:50;;;;;;;12.60;3.05;;;30.00;99.90;;;;;;4212496;28;20044;-69
2022/08/20 07:38:57;;;;;;;10.93;3.10;;;30.10;99.90;;;;;;4211745;28;20098;-70
2022/08/20 07:41:12;;;;;;;10.35;3.05;;;30.10;99.90;;;;;;4211914;28;20498;-70
2022/08/20 07:43:16;;;;;;;8.35;3.00;;;30.10;99.90;;;;;;4212303;28;20630;-70
2022/08/20 07:45:21;;;;;;;7.50;2.80;;;30.10;99.90;;;;;;4210464;28;20056;-70
2022/08/20 07:47:27;;;;;;;8.88;3.05;;;30.10;99.90;;;;;;4211924;28;20081;-69
2022/08/20 07:49:36;;;;;;;8.88;2.67;;;30.20;99.90;;;;;;4211046;28;20090;-69
2022/08/20 07:51:41;;;;;;;6.95;3.33;;;30.20;99.90;;;;;;4210683;28;20059;-70
2022/08/20 07:53:48;;;;;;;8.18;3.05;;;30.20;99.90;;;;;;4212167;28;20040;-70
2022/08/20 07:55:56;;;;;;;7.80;4.65;;;30.30;99.90;;;;;;4176056;28;20102;-69
2022/08/20 07:58:07;;;;;;;42.35;27.98;;;30.30;99.90;;;;;;4210624;28;20143;-71
2022/08/20 08:00:14;;;;;;;23.35;16.00;;;30.30;99.90;;;;;;4210238;28;21412;-70
2022/08/20 08:02:19;;;;;;;60.33;46.10;;;30.30;99.90;;;;;;4209546;28;20700;-70
2022/08/20 08:04:24;;;;;;;25.15;16.02;;;30.40;99.90;;;;;;4212267;28;20036;-69
2022/08/20 08:06:30;;;;;;;9.10;5.25;;;30.40;99.90;;;;;;4210872;28;20048;-71
2022/08/20 08:08:39;;;;;;;9.82;5.90;;;30.30;99.90;;;;;;4192898;28;20052;-70
2022/08/20 08:10:46;;;;;;;11.18;4.72;;;30.20;99.90;;;;;;4212077;28;20040;-71
2022/08/20 08:13:05;;;;;;;8.48;4.28;;;30.20;99.90;;;;;;4211122;28;20036;-69
2022/08/20 08:15:14;;;;;;;27.40;20.52;;;30.20;99.90;;;;;;4209903;28;20521;-70
2022/08/20 08:17:19;;;;;;;19.33;15.27;;;30.20;99.90;;;;;;4210602;28;20478;-70
2022/08/20 08:19:24;;;;;;;17.70;13.57;;;30.30;99.90;;;;;;4211101;28;20079;-70
2022/08/20 08:21:29;;;;;;;22.75;17.77;;;30.30;99.90;;;;;;4211203;28;20044;-72
2022/08/20 08:23:33;;;;;;;13.68;7.30;;;30.30;99.90;;;;;;4209391;28;20056;-71
2022/08/20 08:25:41;;;;;;;9.48;5.22;;;30.40;99.90;;;;;;4211499;28;20531;-70
2022/08/20 08:27:48;;;;;;;13.23;7.47;;;30.40;99.90;;;;;;4209488;28;20086;-71
2022/08/20 08:29:53;;;;;;;7.82;4.05;;;30.40;99.90;;;;;;4212010;28;20619;-72
2022/08/20 08:32:00;;;;;;;7.72;3.38;;;30.50;99.90;;;;;;4212397;28;20168;-72
2022/08/20 08:34:07;;;;;;;9.57;3.97;;;30.40;99.90;;;;;;4210103;28;20368;-72
2022/08/20 08:36:14;;;;;;;10.63;3.65;;;30.50;99.90;;;;;;4210816;28;20135;-72
2022/08/20 08:38:21;;;;;;;10.70;3.42;;;30.60;99.90;;;;;;4211718;28;20552;-72
2022/08/20 08:40:26;;;;;;;10.23;7.07;;;30.50;99.90;;;;;;4210119;28;20040;-72
2022/08/20 08:42:44;;;;;;;7.93;3.90;;;30.60;99.90;;;;;;4210543;28;20478;-72
2022/08/20 08:44:50;;;;;;;8.20;3.47;;;30.50;99.90;;;;;;4211926;28;20040;-73
2022/08/20 08:47:00;;;;;;;10.70;3.97;;;30.50;99.90;;;;;;4210720;28;20048;-72
2022/08/20 08:49:05;;;;;;;7.82;3.00;;;30.50;99.90;;;;;;4209155;28;20040;-71
2022/08/20 08:51:12;;;;;;;4.93;2.75;;;30.40;99.90;;;;;;4211354;28;20038;-71
2022/08/20 08:53:26;;;;;;;8.38;2.90;;;30.50;99.90;;;;;;4242282;27;20043;-71
2022/08/20 08:55:30;;;;;;;6.63;3.17;;;30.40;99.90;;;;;;4211558;28;20043;-72
2022/08/20 08:57:37;;;;;;;9.55;3.13;;;30.30;99.90;;;;;;4209427;28;20051;-69
2022/08/20 08:59:51;;;;;;;10.32;2.97;;;30.40;99.90;;;;;;4211296;28;20094;-72
2022/08/20 09:02:07;;;;;;;7.93;3.00;;;30.30;99.90;;;;;;4210690;28;20413;-72
2022/08/20 09:04:15;;;;;;;7.32;3.08;;;30.20;99.90;;;;;;4211807;28;20036;-72
2022/08/20 09:06:24;;;;;;;10.60;3.20;;;30.20;99.90;;;;;;4209741;28;20052;-74
2022/08/20 09:08:46;;;;;;;7.47;2.90;;;30.20;99.90;;;;;;4211096;28;20056;-72
2022/08/20 09:10:59;;;;;;;7.85;2.60;;;30.20;99.90;;;;;;4209618;28;20058;-72
2022/08/20 09:13:06;;;;;;;;;;;30.20;99.90;;;;;;4210459;28;20119;-71
2022/08/20 09:15:11;;;;;;;8.60;2.88;;;30.20;99.90;;;;;;4211378;28;19942;-71
2022/08/20 09:17:19;;;;;;;10.85;3.13;;;30.20;99.90;;;;;;4209252;28;20032;-71
2022/08/20 09:19:25;;;;;;;7.65;2.83;;;30.20;99.90;;;;;;4209539;28;20616;-71
2022/08/20 09:21:30;;;;;;;13.00;3.33;;;30.10;99.90;;;;;;4211405;28;20394;-72
2022/08/20 09:23:34;;;;;;;7.75;2.97;;;30.10;99.90;;;;;;4203005;28;20052;-70
2022/08/20 09:25:39;;;;;;;19.85;3.70;;;30.10;99.90;;;;;;4209942;28;20068;-71
2022/08/20 09:27:44;;;;;;;9.38;3.47;;;30.10;99.90;;;;;;4211408;28;20530;-69
2022/08/20 09:29:53;;;;;;;7.70;3.25;;;30.00;99.90;;;;;;4207238;28;20100;-69
2022/08/20 09:32:06;;;;;;;12.57;3.75;;;30.00;99.90;;;;;;4210806;28;20398;-70
2022/08/20 09:34:11;;;;;;;9.20;3.25;;;30.00;99.90;;;;;;4211671;28;20040;-69
2022/08/20 09:36:18;;;;;;;11.02;3.20;;;30.00;99.90;;;;;;4211786;28;20119;-71
2022/08/20 09:38:35;;;;;;;11.90;3.20;;;30.00;99.90;;;;;;4211825;28;20434;-69
2022/08/20 09:40:39;;;;;;;13.65;3.50;;;30.00;99.90;;;;;;4212006;28;20501;-69
2022/08/20 09:42:46;;;;;;;9.00;3.25;;;29.90;99.90;;;;;;4211857;28;20074;-70
2022/08/20 09:44:52;;;;;;;9.73;3.60;;;29.80;99.90;;;;;;4192427;28;20613;-70
2022/08/20 09:46:57;;;;;;;9.15;3.20;;;29.90;99.90;;;;;;4211823;28;20518;-70
2022/08/20 09:49:03;;;;;;;64.00;6.75;;;29.80;99.90;;;;;;4209380;28;20075;-70
2022/08/20 09:51:12;;;;;;;45.63;6.82;;;29.80;99.90;;;;;;4209570;28;20654;-70
2022/08/20 09:53:17;;;;;;;28.25;5.13;;;29.80;99.90;;;;;;4209883;28;20036;-71
2022/08/20 09:55:45;;;;;;;16.92;4.72;;;29.80;99.90;;;;;;4210354;28;20071;-69
2022/08/20 09:57:51;;;;;;;11.80;4.05;;;29.80;99.90;;;;;;4224495;28;20561;-70
2022/08/20 10:00:02;;;;;;;10.73;4.45;;;29.80;99.90;;;;;;4210312;28;20056;-70
2022/08/20 10:02:15;;;;;;;12.85;4.03;;;29.70;99.90;;;;;;4209393;28;20468;-68
2022/08/20 10:04:20;;;;;;;11.75;3.75;;;29.70;99.90;;;;;;4208781;28;20048;-70
2022/08/20 10:06:25;;;;;;;10.70;3.97;;;29.70;99.90;;;;;;4210550;28;20520;-70
2022/08/20 10:08:32;;;;;;;7.50;3.67;;;29.70;99.90;;;;;;4211418;28;20047;-70
2022/08/20 10:10:39;;;;;;;9.27;3.92;;;29.70;99.90;;;;;;4208335;28;20313;-71
2022/08/20 10:12:45;;;;;;;9.13;3.90;;;29.60;99.90;;;;;;4209198;28;20114;-71
2022/08/20 10:14:56;;;;;;;8.70;4.00;;;29.60;99.90;;;;;;4210981;28;20040;-71
2022/08/20 10:17:01;;;;;;;9.88;4.03;;;29.60;99.90;;;;;;4206746;28;20101;-72
2022/08/20 10:19:07;;;;;;;13.23;3.80;;;29.60;99.90;;;;;;4209998;28;20070;-71
2022/08/20 10:21:14;;;;;;;10.27;4.07;;;29.50;99.90;;;;;;4210270;28;20466;-70
2022/08/20 10:23:21;;;;;;;8.00;3.67;;;29.50;99.90;;;;;;4205531;28;20048;-70
2022/08/20 10:25:27;;;;;;;10.90;4.13;;;29.40;99.90;;;;;;4206325;28;20054;-71
2022/08/20 10:27:33;;;;;;;9.60;4.18;;;29.40;99.90;;;;;;4207907;28;20059;-72
2022/08/20 10:29:39;;;;;;;15.70;4.57;;;29.40;99.90;;;;;;4207404;28;20542;-71
2022/08/20 10:31:48;;;;;;;13.98;4.00;;;29.40;99.90;;;;;;4206512;28;20036;-70
2022/08/20 10:33:53;;;;;;;10.75;4.05;;;29.40;99.90;;;;;;4207830;28;20715;-70
2022/08/20 10:36:04;;;;;;;7.35;4.10;;;29.40;99.90;;;;;;4207107;28;20040;-71
2022/08/20 10:38:09;;;;;;;11.43;4.70;;;29.40;99.90;;;;;;4206512;28;20044;-70
2022/08/20 10:40:15;;;;;;;9.30;4.40;;;29.40;99.90;;;;;;4207428;28;20040;-71
2022/08/20 10:42:22;;;;;;;11.40;4.30;;;29.40;99.90;;;;;;4170706;28;20055;-69
2022/08/20 10:44:27;;;;;;;11.18;5.50;;;29.40;99.90;;;;;;4206492;28;20036;-69
2022/08/20 10:46:33;;;;;;;14.85;5.38;;;29.40;99.90;;;;;;4207620;28;20673;-69
2022/08/20 10:48:38;;;;;;;13.85;5.90;;;29.40;99.90;;;;;;4207310;28;20195;-69
2022/08/20 10:50:42;;;;;;;9.02;5.00;;;29.40;99.90;;;;;;4204000;28;20051;-68
2022/08/20 10:52:47;;;;;;;11.20;4.82;;;29.40;99.90;;;;;;4207748;28;20044;-69
2022/08/20 10:54:53;;;;;;;10.98;4.78;;;29.30;99.90;;;;;;4207843;28;20044;-70
2022/08/20 10:57:01;;;;;;;10.23;4.72;;;29.30;99.90;;;;;;4207014;28;20066;-70
2022/08/20 10:59:07;;;;;;;9.30;4.68;;;29.30;99.90;;;;;;4204706;28;20075;-70
2022/08/20 11:01:11;;;;;;;13.27;5.60;;;29.30;99.90;;;;;;4207631;28;20048;-70
2022/08/20 11:03:35;;;;;;;9.60;6.10;;;29.20;99.90;;;;;;4207799;28;20061;-69
2022/08/20 11:05:39;;;;;;;13.40;5.28;;;29.30;99.90;;;;;;4207499;28;20040;-71
2022/08/20 11:07:44;;;;;;;16.95;6.15;;;29.20;99.90;;;;;;4208026;28;20068;-69
2022/08/20 11:09:58;;;;;;;10.80;5.50;;;29.30;99.90;;;;;;4209984;28;20035;-70
2022/08/20 11:12:06;;;;;;;11.98;5.47;;;29.30;99.90;;;;;;4207496;28;20068;-69